Time;durP1;ratioP1;P1;durP2;ratioP2;P2;SDS_P1;SDS_P2;PMS_P1;PMS_P2;Temp;Humidity;BMP_temperature;BMP_pressure;BME280_temperature;BME280_humidity;BME280_pressure;Samples;Min_cycle;Max_cycle;Signal;HPM_P1;HPM_P2
2023/07/24 00:00:15;;;;;;;0.57;0.57;;;9.70;99.90;;;;;;5070791;28;20197;-64
2023/07/24 00:02:41;;;;;;;0.55;0.55;;;9.70;99.90;;;;;;5070342;28;20189;-65
2023/07/24 00:05:07;;;;;;;0.60;0.60;;;9.70;99.90;;;;;;5070267;28;20272;-65
2023/07/24 00:07:33;;;;;;;0.60;0.60;;;9.70;99.90;;;;;;5052059;28;20204;-65
2023/07/24 00:09:58;;;;;;;0.50;0.50;;;9.60;99.90;;;;;;5070604;28;20609;-65
2023/07/24 00:12:24;;;;;;;0.68;0.68;;;9.60;99.90;;;;;;5069922;28;20212;-65
2023/07/24 00:14:52;;;;;;;0.70;0.70;;;9.60;99.90;;;;;;5070435;28;20220;-65
2023/07/24 00:17:17;;;;;;;0.47;0.47;;;9.50;99.90;;;;;;5070660;28;20200;-65
2023/07/24 00:19:43;;;;;;;0.60;0.60;;;9.50;99.90;;;;;;5070506;28;20189;-64
2023/07/24 00:22:09;;;;;;;0.60;0.60;;;9.50;99.90;;;;;;5070286;28;20241;-64
2023/07/24 00:24:35;;;;;;;0.57;0.57;;;9.50;99.90;;;;;;5070358;28;20567;-65
2023/07/24 00:27:01;;;;;;;0.60;0.60;;;9.40;99.90;;;;;;5070267;28;20201;-65
2023/07/24 00:29:27;;;;;;;0.60;0.60;;;9.50;99.90;;;;;;5070475;28;20189;-64
2023/07/24 00:31:52;;;;;;;0.60;0.60;;;9.50;99.90;;;;;;5069848;28;20587;-64
2023/07/24 00:34:18;;;;;;;0.60;0.60;;;9.40;99.90;;;;;;5052128;28;20229;-66
2023/07/24 00:36:44;;;;;;;0.60;0.60;;;9.40;99.90;;;;;;5055091;28;20197;-65
2023/07/24 00:39:10;;;;;;;1.48;1.17;;;9.40;99.90;;;;;;5073990;28;20656;-64
2023/07/24 00:41:35;;;;;;;0.70;0.70;;;9.30;99.90;;;;;;5073817;28;20214;-65
2023/07/24 00:44:01;;;;;;;0.60;0.60;;;9.30;99.90;;;;;;5073633;28;20197;-65
2023/07/24 00:46:31;;;;;;;0.60;0.60;;;9.30;99.90;;;;;;5055748;28;20197;-65
2023/07/24 00:49:00;;;;;;;0.50;0.50;;;9.30;99.90;;;;;;5073822;28;20282;-65
2023/07/24 00:51:27;;;;;;;0.52;0.52;;;9.30;99.90;;;;;;5073615;28;20254;-64
2023/07/24 00:53:56;;;;;;;0.60;0.60;;;9.30;99.90;;;;;;5055637;28;20227;-64
2023/07/24 00:56:22;;;;;;;0.60;0.60;;;9.30;99.90;;;;;;5073589;28;20268;-64
2023/07/24 00:58:48;;;;;;;0.60;0.60;;;9.30;99.90;;;;;;5055464;28;20197;-65
2023/07/24 01:01:16;;;;;;;0.80;0.80;;;9.30;99.90;;;;;;5074133;28;20192;-67
2023/07/24 01:03:43;;;;;;;0.60;0.60;;;9.20;99.90;;;;;;5080358;22;21017;-70
2023/07/24 01:06:09;;;;;;;0.80;0.80;;;9.20;99.90;;;;;;5054371;28;20205;-70
2023/07/24 01:08:36;;;;;;;0.60;0.60;;;9.20;99.90;;;;;;5073453;28;20192;-70
2023/07/24 01:11:27;;;;;;;0.50;0.50;;;9.20;99.90;;;;;;5073610;28;20204;-70
2023/07/24 01:14:09;;;;;;;0.60;0.60;;;9.20;99.90;;;;;;5073415;28;20196;-70
2023/07/24 01:16:38;;;;;;;0.60;0.60;;;9.20;99.90;;;;;;5073292;28;20209;-70
2023/07/24 01:19:24;;;;;;;1.60;1.33;;;9.20;99.90;;;;;;5073823;28;20185;-70
2023/07/24 01:22:19;;;;;;;0.50;0.50;;;9.10;99.90;;;;;;5073175;28;20268;-70
2023/07/24 01:24:57;;;;;;;0.60;0.60;;;9.20;99.90;;;;;;5055629;28;20188;-70
2023/07/24 01:27:26;;;;;;;0.93;0.80;;;9.10;99.90;;;;;;5073256;28;20555;-71
2023/07/24 01:29:52;;;;;;;0.60;0.60;;;9.10;99.90;;;;;;5073340;28;20227;-70
2023/07/24 01:32:19;;;;;;;0.70;0.70;;;9.10;99.90;;;;;;5073086;28;20229;-71
2023/07/24 01:34:45;;;;;;;0.63;0.63;;;9.10;99.90;;;;;;5073060;28;20193;-71
2023/07/24 01:37:12;;;;;;;0.60;0.60;;;9.10;99.90;;;;;;5073336;28;20200;-71
2023/07/24 01:39:40;;;;;;;0.70;0.70;;;9.00;99.90;;;;;;5054847;28;20263;-71
2023/07/24 01:42:06;;;;;;;0.55;0.55;;;9.00;99.90;;;;;;5073257;28;20208;-70
2023/07/24 01:44:32;;;;;;;0.70;0.70;;;9.00;99.90;;;;;;5072889;28;20197;-70
2023/07/24 01:46:57;;;;;;;0.60;0.60;;;9.00;99.90;;;;;;5072385;28;20189;-70
2023/07/24 01:49:23;;;;;;;0.50;0.50;;;8.90;99.90;;;;;;5072565;28;20243;-70
2023/07/24 01:51:49;;;;;;;0.55;0.55;;;8.90;99.90;;;;;;5072277;28;20738;-70
2023/07/24 01:54:14;;;;;;;0.60;0.60;;;8.90;99.90;;;;;;5073000;28;20196;-70
2023/07/24 01:56:40;;;;;;;0.60;0.60;;;8.80;99.90;;;;;;5054851;28;20189;-70
2023/07/24 01:59:06;;;;;;;0.73;0.73;;;8.80;99.90;;;;;;5072832;28;20628;-70
2023/07/24 02:01:32;;;;;;;0.70;0.70;;;8.80;99.90;;;;;;5072586;28;20205;-70
2023/07/24 02:03:57;;;;;;;0.60;0.60;;;8.80;99.90;;;;;;5072314;28;20311;-70
2023/07/24 02:06:23;;;;;;;0.60;0.60;;;8.80;99.90;;;;;;5072427;28;20223;-71
2023/07/24 02:08:51;;;;;;;0.68;0.68;;;8.80;99.90;;;;;;5072207;28;20203;-71
2023/07/24 02:11:17;;;;;;;0.60;0.60;;;8.70;99.90;;;;;;5072046;28;20201;-70
2023/07/24 02:13:46;;;;;;;0.60;0.60;;;8.70;99.90;;;;;;5072337;28;20189;-70
2023/07/24 02:16:13;;;;;;;0.65;0.65;;;8.70;99.90;;;;;;5054613;28;20200;-70
2023/07/24 02:18:41;;;;;;;0.60;0.60;;;8.70;99.90;;;;;;5072152;28;20200;-70
2023/07/24 02:21:07;;;;;;;0.60;0.60;;;8.70;99.90;;;;;;5072141;28;20201;-70
2023/07/24 02:23:32;;;;;;;0.60;0.60;;;8.70;99.90;;;;;;5071853;28;20223;-71
2023/07/24 02:25:58;;;;;;;0.60;0.60;;;8.70;99.90;;;;;;5072319;28;20188;-71
2023/07/24 02:28:24;;;;;;;0.60;0.60;;;8.70;99.90;;;;;;5072000;28;20722;-70
2023/07/24 02:30:51;;;;;;;0.60;0.60;;;8.70;99.90;;;;;;5071189;28;20201;-70
2023/07/24 02:33:17;;;;;;;0.60;0.60;;;8.70;99.90;;;;;;5072264;28;20188;-70
2023/07/24 02:35:43;;;;;;;0.60;0.60;;;8.70;99.90;;;;;;5072106;28;20193;-70
2023/07/24 02:38:09;;;;;;;0.80;0.80;;;8.80;99.90;;;;;;5072142;28;20189;-70
2023/07/24 02:40:36;;;;;;;0.60;0.60;;;8.90;99.90;;;;;;5071516;28;20193;-70
2023/07/24 02:43:02;;;;;;;0.60;0.60;;;9.00;99.90;;;;;;5071948;28;20271;-71
2023/07/24 02:45:27;;;;;;;0.60;0.60;;;9.00;99.90;;;;;;5071604;28;20215;-70
2023/07/24 02:47:53;;;;;;;0.75;0.75;;;9.10;99.90;;;;;;5071799;28;20192;-71
2023/07/24 02:50:19;;;;;;;0.60;0.60;;;9.10;99.90;;;;;;5071388;28;20188;-70
2023/07/24 02:52:44;;;;;;;0.60;0.60;;;9.20;99.90;;;;;;5071578;28;20614;-70
2023/07/24 02:55:10;;;;;;;0.60;0.60;;;9.20;99.90;;;;;;5054013;28;20203;-71
2023/07/24 02:57:36;;;;;;;0.65;0.65;;;9.20;99.90;;;;;;5071460;28;20242;-70
2023/07/24 03:00:02;;;;;;;0.52;0.52;;;9.30;99.90;;;;;;5071413;28;20220;-71
2023/07/24 03:02:28;;;;;;;0.60;0.60;;;9.30;99.90;;;;;;5070123;28;20227;-71
2023/07/24 03:04:54;;;;;;;0.68;0.68;;;9.40;99.90;;;;;;5033015;28;20306;-70
2023/07/24 03:07:19;;;;;;;0.60;0.60;;;9.40;99.90;;;;;;5051338;28;20201;-71
2023/07/24 03:09:45;;;;;;;0.50;0.50;;;9.50;99.90;;;;;;5050867;28;20291;-70
2023/07/24 03:12:11;;;;;;;1.20;0.85;;;9.60;99.90;;;;;;5051164;28;20339;-70
2023/07/24 03:14:37;;;;;;;0.60;0.60;;;9.70;99.90;;;;;;5051245;28;20186;-70
2023/07/24 03:17:02;;;;;;;0.63;0.63;;;9.80;99.90;;;;;;5051819;28;20194;-70
2023/07/24 03:19:28;;;;;;;1.48;0.93;;;9.90;99.90;;;;;;5051544;28;20244;-70
2023/07/24 03:21:54;;;;;;;0.60;0.60;;;10.00;99.90;;;;;;5054202;28;20197;-70
2023/07/24 03:24:19;;;;;;;0.60;0.60;;;10.10;99.90;;;;;;5070576;28;20192;-70
2023/07/24 03:26:45;;;;;;;0.60;0.60;;;10.30;99.90;;;;;;5070608;28;20201;-70
2023/07/24 03:29:11;;;;;;;0.50;0.50;;;10.40;99.90;;;;;;5071453;28;20671;-71
2023/07/24 03:31:36;;;;;;;0.50;0.50;;;10.60;99.90;;;;;;5071344;28;20209;-71
2023/07/24 03:34:02;;;;;;;0.60;0.60;;;10.70;99.90;;;;;;5071855;28;20322;-71
2023/07/24 03:36:28;;;;;;;0.60;0.60;;;10.80;99.90;;;;;;5070981;28;20181;-70
2023/07/24 03:38:53;;;;;;;1.05;0.88;;;10.90;99.90;;;;;;5071093;28;20205;-71
2023/07/24 03:41:19;;;;;;;0.50;0.50;;;10.90;99.90;;;;;;5052991;28;20192;-71
2023/07/24 03:43:45;;;;;;;0.50;0.50;;;10.90;99.90;;;;;;5052915;28;20208;-71
2023/07/24 03:46:10;;;;;;;0.60;0.60;;;10.80;99.90;;;;;;5070864;28;20197;-71
2023/07/24 03:48:36;;;;;;;0.52;0.52;;;10.80;99.90;;;;;;5070998;28;20355;-71
2023/07/24 03:51:02;;;;;;;0.60;0.60;;;10.80;99.90;;;;;;5070854;28;20203;-71
2023/07/24 03:53:28;;;;;;;0.50;0.50;;;10.80;99.90;;;;;;5070219;28;20197;-70
2023/07/24 03:55:54;;;;;;;0.70;0.70;;;10.80;99.90;;;;;;5070575;28;20271;-71
2023/07/24 03:58:20;;;;;;;0.50;0.50;;;10.90;99.90;;;;;;5052626;28;20347;-71
2023/07/24 04:00:46;;;;;;;0.50;0.50;;;10.90;99.90;;;;;;5071011;28;20722;-70
2023/07/24 04:03:11;;;;;;;0.60;0.60;;;10.90;99.90;;;;;;5070882;28;20554;-71
2023/07/24 04:05:37;;;;;;;0.50;0.50;;;11.00;99.90;;;;;;5070852;28;20232;-70
2023/07/24 04:08:03;;;;;;;0.50;0.50;;;11.10;99.90;;;;;;5070813;28;20689;-70
2023/07/24 04:10:30;;;;;;;0.60;0.60;;;11.20;99.90;;;;;;5072876;28;20266;-70
2023/07/24 04:12:56;;;;;;;0.50;0.50;;;11.20;99.90;;;;;;5074751;28;20211;-70
2023/07/24 04:15:23;;;;;;;0.50;0.50;;;11.30;99.90;;;;;;5074386;28;20193;-70
2023/07/24 04:17:49;;;;;;;0.50;0.50;;;11.30;99.90;;;;;;5074745;28;20193;-70
2023/07/24 04:20:14;;;;;;;0.63;0.63;;;11.30;99.90;;;;;;5074813;28;20184;-70
2023/07/24 04:22:41;;;;;;;0.50;0.50;;;11.40;99.90;;;;;;5073929;28;20413;-70
2023/07/24 04:25:07;;;;;;;0.50;0.50;;;11.40;99.90;;;;;;5074210;28;20205;-70
2023/07/24 04:27:32;;;;;;;0.50;0.50;;;11.50;99.90;;;;;;5074551;28;20193;-70
2023/07/24 04:29:58;;;;;;;0.50;0.50;;;11.60;99.90;;;;;;5074933;28;20603;-70
2023/07/24 04:32:27;;;;;;;0.60;0.60;;;11.70;99.90;;;;;;5074154;28;20205;-70
2023/07/24 04:34:53;;;;;;;0.50;0.50;;;11.80;99.90;;;;;;5056375;28;20212;-70
2023/07/24 04:37:18;;;;;;;0.80;0.80;;;11.90;99.90;;;;;;5074127;28;20189;-70
2023/07/24 04:39:44;;;;;;;0.50;0.50;;;12.00;99.90;;;;;;5074318;28;20188;-70
2023/07/24 04:42:10;;;;;;;0.50;0.50;;;12.10;99.90;;;;;;5074096;28;20201;-70
2023/07/24 04:44:35;;;;;;;0.52;0.52;;;12.30;99.90;;;;;;5056112;28;20273;-70
2023/07/24 04:47:02;;;;;;;0.60;0.60;;;12.40;99.90;;;;;;5074163;28;20188;-70
2023/07/24 04:49:32;;;;;;;0.50;0.50;;;12.50;99.90;;;;;;5073789;28;20267;-70
2023/07/24 04:51:58;;;;;;;0.45;0.45;;;12.60;99.90;;;;;;5074075;28;20671;-69
2023/07/24 04:54:24;;;;;;;1.65;0.70;;;12.70;99.90;;;;;;5073925;28;20189;-69
2023/07/24 04:56:50;;;;;;;0.60;0.60;;;12.70;99.90;;;;;;5073872;28;20201;-69
2023/07/24 04:59:16;;;;;;;0.60;0.60;;;12.80;99.90;;;;;;5074173;28;20601;-70
2023/07/24 05:01:42;;;;;;;0.40;0.40;;;12.90;99.90;;;;;;5073327;28;20258;-70
2023/07/24 05:04:08;;;;;;;0.60;0.60;;;13.00;99.90;;;;;;5072983;28;20312;-70
2023/07/24 05:06:35;;;;;;;0.50;0.50;;;13.10;99.90;;;;;;5073667;28;20283;-69
2023/07/24 05:09:01;;;;;;;3.40;0.82;;;13.20;99.90;;;;;;5073683;28;20725;-69
2023/07/24 05:11:27;;;;;;;0.40;0.40;;;13.30;99.90;;;;;;5073464;28;20188;-69
2023/07/24 05:13:53;;;;;;;0.50;0.50;;;13.40;99.90;;;;;;5073683;28;20556;-69
2023/07/24 05:16:19;;;;;;;0.52;0.52;;;13.50;99.90;;;;;;5073325;28;20193;-69
2023/07/24 05:18:44;;;;;;;0.40;0.40;;;13.70;99.90;;;;;;5073577;28;20262;-70
2023/07/24 05:21:10;;;;;;;0.40;0.40;;;13.70;99.90;;;;;;5072697;28;20193;-70
2023/07/24 05:23:36;;;;;;;0.40;0.40;;;13.90;99.90;;;;;;5072961;28;20566;-69
2023/07/24 05:26:03;;;;;;;0.30;0.30;;;14.00;99.90;;;;;;5073208;28;20250;-69
2023/07/24 05:28:30;;;;;;;0.50;0.50;;;14.10;99.90;;;;;;5072874;28;20193;-69
2023/07/24 05:30:56;;;;;;;0.68;0.68;;;14.20;99.90;;;;;;5058282;28;20217;-69
2023/07/24 05:33:21;;;;;;;0.75;0.75;;;14.30;99.90;;;;;;5052932;28;20240;-69
2023/07/24 05:35:49;;;;;;;0.50;0.50;;;14.50;99.90;;;;;;5053001;28;20197;-69
2023/07/24 05:38:15;;;;;;;0.40;0.40;;;14.50;99.90;;;;;;5052801;28;20556;-69
2023/07/24 05:40:40;;;;;;;0.60;0.60;;;14.60;99.90;;;;;;5034920;28;20201;-69
2023/07/24 05:43:06;;;;;;;0.47;0.47;;;14.60;99.90;;;;;;5052607;28;20323;-69
2023/07/24 05:45:32;;;;;;;0.40;0.40;;;14.70;99.90;;;;;;5064008;28;20200;-69
2023/07/24 05:47:57;;;;;;;0.50;0.50;;;14.90;99.90;;;;;;5072949;28;20268;-69
2023/07/24 05:50:23;;;;;;;0.40;0.40;;;15.00;99.90;;;;;;5073201;28;20185;-69
2023/07/24 05:52:49;;;;;;;0.50;0.50;;;15.30;99.90;;;;;;5073257;28;20237;-69
2023/07/24 05:55:14;;;;;;;0.45;0.45;;;15.40;99.90;;;;;;5069291;28;20193;-69
2023/07/24 05:57:40;;;;;;;0.30;0.30;;;15.50;99.90;;;;;;5058512;28;20790;-69
2023/07/24 06:00:07;;;;;;;0.30;0.30;;;15.70;99.90;;;;;;5052909;28;20214;-69
2023/07/24 06:02:33;;;;;;;1.70;1.30;;;15.80;99.90;;;;;;5052151;28;20567;-71
2023/07/24 06:04:58;;;;;;;0.30;0.30;;;15.80;99.90;;;;;;5052487;28;20233;-68
2023/07/24 06:07:24;;;;;;;0.30;0.30;;;16.00;99.90;;;;;;5052495;28;20661;-69
2023/07/24 06:09:50;;;;;;;0.30;0.30;;;16.10;99.90;;;;;;5052616;28;20221;-69
2023/07/24 06:12:16;;;;;;;1.00;0.88;;;16.20;99.90;;;;;;5052129;28;20289;-69
2023/07/24 06:14:41;;;;;;;0.40;0.40;;;16.30;99.90;;;;;;5061497;28;20261;-69
2023/07/24 06:17:07;;;;;;;0.30;0.30;;;16.30;99.90;;;;;;5072515;28;20197;-68
2023/07/24 06:19:33;;;;;;;0.30;0.30;;;16.30;99.90;;;;;;5071640;28;20196;-69
2023/07/24 06:21:58;;;;;;;0.30;0.30;;;16.40;99.90;;;;;;5072682;28;20298;-69
2023/07/24 06:24:24;;;;;;;0.57;0.57;;;16.60;99.90;;;;;;5072146;28;20200;-69
2023/07/24 06:26:50;;;;;;;0.30;0.30;;;16.90;99.90;;;;;;5072178;28;20221;-69
2023/07/24 06:29:16;;;;;;;0.45;0.43;;;17.20;99.90;;;;;;5055179;28;20216;-69
2023/07/24 06:31:42;;;;;;;0.30;0.30;;;17.50;99.90;;;;;;5052023;28;20714;-69
2023/07/24 06:34:07;;;;;;;0.30;0.30;;;17.70;99.90;;;;;;5051974;28;20201;-66
2023/07/24 06:36:33;;;;;;;0.30;0.30;;;17.70;99.90;;;;;;5052052;28;20190;-68
2023/07/24 06:38:59;;;;;;;0.30;0.30;;;17.60;99.90;;;;;;5052146;28;20196;-68
2023/07/24 06:41:25;;;;;;;0.28;0.28;;;17.50;99.90;;;;;;5051821;28;20230;-68
2023/07/24 06:43:51;;;;;;;0.30;0.30;;;17.60;99.90;;;;;;5052000;28;20315;-70
2023/07/24 06:46:17;;;;;;;2.38;0.57;;;17.70;99.90;;;;;;5051914;28;20342;-69
2023/07/24 06:48:43;;;;;;;0.30;0.30;;;17.80;99.90;;;;;;5051818;28;20281;-68
2023/07/24 06:51:08;;;;;;;0.47;0.47;;;17.80;99.90;;;;;;5051723;28;20888;-69
2023/07/24 06:53:34;;;;;;;0.47;0.47;;;17.70;99.90;;;;;;5051683;28;20189;-69
2023/07/24 06:56:00;;;;;;;0.25;0.25;;;17.70;99.90;;;;;;5051624;28;20189;-69
2023/07/24 06:58:25;;;;;;;0.47;0.47;;;17.80;99.90;;;;;;5050855;28;20190;-69
2023/07/24 07:00:51;;;;;;;0.30;0.30;;;17.90;99.90;;;;;;5064752;28;20197;-69
2023/07/24 07:03:17;;;;;;;0.25;0.25;;;17.90;99.90;;;;;;5070621;28;20667;-69
2023/07/24 07:05:42;;;;;;;0.50;0.45;;;18.00;99.90;;;;;;5071349;28;20228;-69
2023/07/24 07:08:08;;;;;;;0.73;0.63;;;18.10;99.90;;;;;;5071703;28;20193;-69
2023/07/24 07:10:34;;;;;;;0.30;0.30;;;18.10;99.90;;;;;;5071534;28;20200;-69
2023/07/24 07:13:00;;;;;;;0.40;0.40;;;18.20;99.90;;;;;;5071313;28;20204;-69
2023/07/24 07:15:25;;;;;;;0.50;0.50;;;18.30;99.90;;;;;;5071520;28;20193;-69
2023/07/24 07:17:51;;;;;;;0.20;0.20;;;18.20;99.90;;;;;;5071430;28;20620;-69
2023/07/24 07:20:17;;;;;;;0.30;0.30;;;18.10;99.90;;;;;;5070817;28;20199;-69
2023/07/24 07:22:42;;;;;;;0.85;0.63;;;18.20;99.90;;;;;;5070813;28;20908;-69
2023/07/24 07:25:08;;;;;;;0.30;0.30;;;18.20;99.90;;;;;;5070922;28;20200;-68
2023/07/24 07:27:34;;;;;;;0.30;0.30;;;18.20;99.90;;;;;;5070966;28;20197;-69
2023/07/24 07:30:00;;;;;;;0.55;0.55;;;18.20;99.90;;;;;;5070965;28;20286;-69
2023/07/24 07:32:27;;;;;;;0.30;0.30;;;18.20;99.90;;;;;;5071530;28;20299;-69
2023/07/24 07:34:52;;;;;;;0.30;0.30;;;18.30;99.90;;;;;;5070976;28;20188;-69
2023/07/24 07:37:18;;;;;;;0.40;0.40;;;18.40;99.90;;;;;;5070618;28;20185;-68
2023/07/24 07:39:44;;;;;;;0.40;0.40;;;18.50;99.90;;;;;;5070973;28;20267;-68
2023/07/24 07:42:09;;;;;;;0.40;0.40;;;18.50;99.90;;;;;;5070568;28;20279;-69
2023/07/24 07:44:35;;;;;;;0.30;0.30;;;18.70;99.90;;;;;;5070023;28;20189;-69
2023/07/24 07:47:01;;;;;;;0.30;0.30;;;18.90;99.90;;;;;;5053015;28;20686;-70
2023/07/24 07:49:27;;;;;;;0.20;0.20;;;19.10;99.90;;;;;;5070441;28;20228;-69
2023/07/24 07:51:52;;;;;;;0.30;0.30;;;19.10;99.90;;;;;;5070412;28;20625;-69
2023/07/24 07:54:18;;;;;;;0.20;0.20;;;19.30;99.90;;;;;;5070817;28;20243;-68
2023/07/24 07:56:44;;;;;;;0.30;0.30;;;19.50;99.90;;;;;;5071242;28;20276;-69
2023/07/24 07:59:10;;;;;;;0.20;0.20;;;19.30;99.90;;;;;;5070828;28;20254;-69
2023/07/24 08:01:42;;;;;;;0.50;0.50;;;19.20;99.90;;;;;;5070405;28;20209;-69
2023/07/24 08:04:07;;;;;;;0.40;0.40;;;19.10;99.90;;;;;;5070743;28;20274;-69
2023/07/24 08:06:33;;;;;;;0.40;0.40;;;19.10;99.90;;;;;;5070723;28;20564;-69
2023/07/24 08:08:59;;;;;;;0.57;0.30;;;19.20;99.90;;;;;;5070809;28;20203;-69
2023/07/24 08:11:24;;;;;;;0.30;0.30;;;19.30;99.90;;;;;;5070476;28;20398;-69
2023/07/24 08:13:50;;;;;;;0.45;0.45;;;19.50;99.90;;;;;;5070786;28;20224;-69
2023/07/24 08:16:19;;;;;;;0.20;0.20;;;19.60;99.90;;;;;;5070068;28;20679;-69
2023/07/24 08:18:48;;;;;;;0.20;0.20;;;19.90;99.90;;;;;;5070790;28;20560;-69
2023/07/24 08:21:15;;;;;;;0.25;0.25;;;20.30;99.90;;;;;;5070766;28;20207;-69
2023/07/24 08:23:41;;;;;;;0.30;0.30;;;20.40;99.90;;;;;;5070406;28;20204;-69
2023/07/24 08:26:07;;;;;;;0.20;0.20;;;20.60;99.90;;;;;;5070770;28;20211;-69
2023/07/24 08:28:35;;;;;;;0.22;0.22;;;20.70;99.90;;;;;;5070460;28;20268;-70
2023/07/24 08:31:01;;;;;;;0.38;0.30;;;20.90;99.90;;;;;;5070498;28;20603;-70
2023/07/24 08:33:28;;;;;;;0.32;0.30;;;21.00;99.90;;;;;;5052452;28;20200;-70
2023/07/24 08:36:05;;;;;;;0.45;0.32;;;20.90;99.90;;;;;;5070659;28;20643;-70
2023/07/24 08:38:31;;;;;;;0.20;0.20;;;21.20;99.90;;;;;;5070391;28;20193;-69
2023/07/24 08:41:15;;;;;;;0.20;0.20;;;21.30;99.90;;;;;;5070626;28;20640;-69
2023/07/24 08:43:42;;;;;;;0.22;0.22;;;21.40;99.90;;;;;;5070394;28;20709;-70
2023/07/24 08:46:09;;;;;;;0.22;0.22;;;21.30;99.90;;;;;;5070564;28;20189;-70
2023/07/24 08:48:36;;;;;;;0.65;0.45;;;21.20;99.90;;;;;;5070263;28;20442;-70
2023/07/24 08:51:08;;;;;;;0.55;0.45;;;21.20;99.90;;;;;;5070310;28;20682;-70
2023/07/24 08:53:39;;;;;;;0.50;0.50;;;21.00;99.90;;;;;;5070292;28;20722;-70
2023/07/24 08:56:06;;;;;;;0.40;0.40;;;21.10;99.90;;;;;;5069914;28;20216;-70
2023/07/24 08:58:32;;;;;;;0.30;0.30;;;21.00;99.90;;;;;;5073677;28;20276;-70
2023/07/24 09:00:59;;;;;;;0.40;0.40;;;21.00;99.90;;;;;;5073780;28;20189;-70
2023/07/24 09:03:25;;;;;;;0.20;0.20;;;21.10;99.90;;;;;;5073038;28;20745;-69
2023/07/24 09:05:51;;;;;;;0.22;0.22;;;21.00;99.90;;;;;;5073710;28;20193;-69
2023/07/24 09:08:27;;;;;;;0.40;0.40;;;20.80;99.90;;;;;;5072921;28;20220;-69
2023/07/24 09:10:53;;;;;;;0.25;0.25;;;20.50;99.90;;;;;;5072910;28;20719;-69
2023/07/24 09:13:19;;;;;;;0.30;0.30;;;20.50;99.90;;;;;;5073148;28;20272;-69
2023/07/24 09:15:45;;;;;;;0.47;0.47;;;20.30;99.90;;;;;;5073377;28;20579;-69
2023/07/24 09:18:11;;;;;;;0.40;0.40;;;20.20;99.90;;;;;;5073374;28;20193;-69
2023/07/24 09:20:41;;;;;;;0.28;0.28;;;20.20;99.90;;;;;;5073397;28;20196;-69
2023/07/24 09:23:10;;;;;;;0.20;0.20;;;19.90;99.90;;;;;;5055715;28;20201;-69
2023/07/24 09:25:38;;;;;;;0.40;0.40;;;19.90;99.90;;;;;;5073134;28;20220;-69
2023/07/24 16:11:07;;;;;;;0.30;0.30;;;16.70;99.90;;;;;;5044688;28;20316;-71
2023/07/24 16:14:11;;;;;;;0.30;0.30;;;16.80;99.90;;;;;;5073784;28;20228;-70
2023/07/24 16:17:14;;;;;;;0.30;0.30;;;17.00;99.90;;;;;;5074254;28;20215;-71
2023/07/24 16:20:17;;;;;;;0.40;0.40;;;17.00;99.90;;;;;;5073865;28;20200;-71
2023/07/24 16:23:20;;;;;;;0.30;0.30;;;17.10;99.90;;;;;;5074177;28;20223;-71
2023/07/24 16:26:23;;;;;;;0.40;0.40;;;17.10;99.90;;;;;;5073506;28;20675;-70
2023/07/24 16:29:26;;;;;;;0.40;0.40;;;17.10;99.90;;;;;;5073899;28;20249;-71
2023/07/24 16:32:29;;;;;;;0.35;0.35;;;17.10;99.90;;;;;;5073481;28;20658;-69
2023/07/24 16:35:32;;;;;;;0.50;0.50;;;17.10;99.90;;;;;;5073738;28;20220;-71
2023/07/24 16:38:35;;;;;;;0.30;0.30;;;17.00;99.90;;;;;;5073446;28;20193;-70
2023/07/24 16:41:38;;;;;;;0.30;0.30;;;17.00;99.90;;;;;;5073580;28;20196;-71
2023/07/24 16:44:41;;;;;;;0.30;0.30;;;16.90;99.90;;;;;;5073454;28;20274;-71
2023/07/24 16:47:44;;;;;;;0.40;0.40;;;16.80;99.90;;;;;;5073901;28;20199;-71
2023/07/24 16:50:47;;;;;;;0.47;0.43;;;16.80;99.90;;;;;;5073445;28;20224;-70
2023/07/24 16:53:51;;;;;;;0.20;0.20;;;16.70;99.90;;;;;;5073259;28;20353;-71
2023/07/24 16:56:54;;;;;;;0.40;0.40;;;16.70;99.90;;;;;;5073119;28;20224;-72
2023/07/24 16:59:57;;;;;;;0.40;0.40;;;16.60;99.90;;;;;;5055102;28;20295;-71
2023/07/24 17:03:00;;;;;;;0.30;0.30;;;16.50;99.90;;;;;;5072481;28;20200;-71
2023/07/24 17:06:03;;;;;;;0.30;0.30;;;16.50;99.90;;;;;;5073276;28;20200;-70
2023/07/24 17:09:06;;;;;;;0.30;0.30;;;16.40;99.90;;;;;;5072500;28;20200;-71
2023/07/24 17:12:09;;;;;;;0.30;0.30;;;16.40;99.90;;;;;;5054207;28;20250;-72
2023/07/24 17:15:12;;;;;;;0.30;0.30;;;16.20;99.90;;;;;;5072655;28;20201;-71
2023/07/24 17:18:15;;;;;;;0.30;0.30;;;16.10;99.90;;;;;;5071430;28;20188;-71
2023/07/24 17:21:18;;;;;;;0.30;0.30;;;16.00;99.90;;;;;;5072297;28;20569;-71
2023/07/24 17:24:21;;;;;;;0.40;0.40;;;15.90;99.90;;;;;;5072700;28;20238;-71
2023/07/24 17:27:25;;;;;;;3.30;0.90;;;15.80;99.90;;;;;;5054747;28;20231;-71
2023/07/24 17:30:28;;;;;;;0.40;0.40;;;15.90;99.90;;;;;;5072632;28;20651;-71
2023/07/24 17:33:31;;;;;;;0.40;0.40;;;15.80;99.90;;;;;;5072550;28;20212;-70
2023/07/24 17:36:34;;;;;;;0.80;0.75;;;15.80;99.90;;;;;;5072552;28;20201;-69
2023/07/24 17:39:37;;;;;;;0.40;0.40;;;15.70;99.90;;;;;;5054704;28;20201;-74
2023/07/24 17:42:40;;;;;;;0.43;0.43;;;15.60;99.90;;;;;;5072946;28;20207;-72
2023/07/24 17:45:43;;;;;;;0.47;0.47;;;15.50;99.90;;;;;;5072546;28;20682;-70
2023/07/24 17:48:46;;;;;;;0.47;0.47;;;15.60;99.90;;;;;;5072778;28;20247;-71
2023/07/24 17:51:49;;;;;;;0.90;0.52;;;15.60;99.90;;;;;;5072121;28;20281;-69
2023/07/24 17:54:52;;;;;;;0.63;0.60;;;15.60;99.90;;;;;;5072782;28;20255;-72
2023/07/24 17:57:55;;;;;;;0.40;0.40;;;15.60;99.90;;;;;;5055045;28;20565;-72
2023/07/24 18:00:58;;;;;;;0.30;0.30;;;15.60;99.90;;;;;;5073319;28;20500;-72
2023/07/24 18:04:02;;;;;;;0.30;0.30;;;15.60;99.90;;;;;;5053797;28;20208;-71
2023/07/24 18:07:05;;;;;;;0.60;0.60;;;15.60;99.90;;;;;;5072093;28;20208;-71
2023/07/24 18:10:08;;;;;;;0.30;0.30;;;15.60;99.90;;;;;;5072750;28;20286;-72
2023/07/24 18:13:12;;;;;;;0.50;0.50;;;15.70;99.90;;;;;;5071816;28;20777;-72
2023/07/24 18:16:15;;;;;;;0.40;0.40;;;15.60;99.90;;;;;;5071963;28;20755;-72
2023/07/24 18:19:19;;;;;;;0.40;0.40;;;15.60;99.90;;;;;;5068539;28;20432;-72
2023/07/24 18:22:22;;;;;;;0.32;0.32;;;15.60;99.90;;;;;;5071918;28;20208;-73
2023/07/24 18:25:25;;;;;;;0.50;0.50;;;15.50;99.90;;;;;;5070270;28;20258;-71
2023/07/24 18:28:28;;;;;;;0.30;0.30;;;15.50;99.90;;;;;;5071335;28;20611;-70
2023/07/24 18:31:31;;;;;;;0.40;0.40;;;15.50;99.90;;;;;;5053320;28;20266;-70
2023/07/24 18:34:35;;;;;;;0.57;0.57;;;15.50;99.90;;;;;;5070973;28;20210;-73
2023/07/24 18:37:38;;;;;;;0.30;0.30;;;15.50;99.90;;;;;;5085605;28;20195;-70
2023/07/24 18:40:41;;;;;;;0.40;0.40;;;15.50;99.90;;;;;;5092236;28;20200;-70
2023/07/24 18:43:44;;;;;;;0.55;0.55;;;15.40;99.90;;;;;;5091647;28;20567;-71
2023/07/24 18:46:47;;;;;;;0.30;0.30;;;15.50;99.90;;;;;;5092004;28;20562;-69
2023/07/24 18:49:50;;;;;;;0.30;0.30;;;15.60;99.90;;;;;;5075625;28;20292;-68
2023/07/24 18:52:53;;;;;;;0.30;0.30;;;15.50;99.90;;;;;;5059118;28;20217;-70
2023/07/24 18:55:58;;;;;;;0.30;0.30;;;15.50;99.90;;;;;;5051274;28;20224;-70
2023/07/24 18:59:01;;;;;;;0.47;0.47;;;15.60;99.90;;;;;;5050058;28;20201;-70
2023/07/24 19:02:04;;;;;;;0.30;0.30;;;15.50;99.90;;;;;;5050939;28;20704;-69
2023/07/24 19:05:07;;;;;;;0.30;0.30;;;15.50;99.90;;;;;;5050792;28;20200;-68
2023/07/24 19:08:10;;;;;;;0.30;0.30;;;15.50;99.90;;;;;;5050561;28;20196;-68
2023/07/24 19:11:13;;;;;;;0.57;0.55;;;15.50;99.90;;;;;;5050395;28;20537;-69
2023/07/24 19:14:16;;;;;;;0.30;0.30;;;15.50;99.90;;;;;;5050518;28;20243;-69
2023/07/24 19:17:19;;;;;;;0.40;0.40;;;15.50;99.90;;;;;;5051587;28;20193;-71
2023/07/24 19:20:22;;;;;;;0.30;0.30;;;15.50;99.90;;;;;;5051360;28;20683;-72
2023/07/24 19:23:25;;;;;;;0.35;0.35;;;15.50;99.90;;;;;;5051139;28;20630;-72
2023/07/24 19:26:28;;;;;;;0.30;0.30;;;15.60;99.90;;;;;;5057805;28;20235;-72
2023/07/24 19:29:32;;;;;;;0.30;0.30;;;15.50;99.90;;;;;;5071163;28;20205;-72
2023/07/24 19:32:35;;;;;;;0.50;0.50;;;15.50;99.90;;;;;;5070794;28;20240;-71
2023/07/24 19:35:38;;;;;;;0.40;0.40;;;15.50;99.90;;;;;;5070778;28;20188;-71
2023/07/24 19:38:42;;;;;;;0.50;0.50;;;15.60;99.90;;;;;;5053130;28;20607;-69
2023/07/24 19:41:45;;;;;;;0.40;0.40;;;15.50;99.90;;;;;;5070500;28;20253;-68
2023/07/24 19:44:48;;;;;;;0.65;0.50;;;15.40;99.90;;;;;;5070827;28;20207;-68
2023/07/24 19:47:52;;;;;;;0.30;0.30;;;15.30;99.90;;;;;;5070978;28;20200;-68
2023/07/24 19:50:54;;;;;;;0.68;0.60;;;15.30;99.90;;;;;;5070429;28;20204;-69
2023/07/24 19:53:58;;;;;;;0.50;0.50;;;15.30;99.90;;;;;;5070277;28;20261;-68
2023/07/24 19:57:01;;;;;;;0.40;0.40;;;15.30;99.90;;;;;;5070632;28;20204;-68
2023/07/24 20:00:04;;;;;;;0.30;0.30;;;15.30;99.90;;;;;;5070690;28;20197;-69
2023/07/24 20:03:07;;;;;;;0.40;0.40;;;15.30;99.90;;;;;;5070503;28;20269;-69
2023/07/24 20:06:10;;;;;;;0.30;0.30;;;15.30;99.90;;;;;;5071004;28;20200;-69
2023/07/24 20:09:14;;;;;;;0.40;0.40;;;15.30;99.90;;;;;;5070931;28;20350;-67
2023/07/24 20:12:17;;;;;;;0.30;0.30;;;15.30;99.90;;;;;;5068101;28;20238;-70
2023/07/24 20:15:20;;;;;;;0.30;0.30;;;15.20;99.90;;;;;;5090848;28;20196;-68
2023/07/24 20:18:24;;;;;;;0.40;0.40;;;15.30;99.90;;;;;;5072765;28;20254;-68